Time;durP1;ratioP1;P1;durP2;ratioP2;P2;SDS_P1;SDS_P2;PMS_P1;PMS_P2;Temp;Humidity;BMP_temperature;BMP_pressure;BME280_temperature;BME280_humidity;BME280_pressure;Samples;Min_cycle;Max_cycle;Signal;HPM_P1;HPM_P2
2020/12/05 00:00:38;;;;;;;21.02;8.45;;;;;;;-1.22;100.00;99012.59;5063114;28;20033;-67
2020/12/05 00:03:04;;;;;;;19.50;8.68;;;;;;;-1.23;100.00;99024.09;5067418;28;20028;-67
2020/12/05 00:05:29;;;;;;;17.67;8.13;;;;;;;-1.24;100.00;99030.34;5066844;28;20039;-67
2020/12/05 00:07:55;;;;;;;20.70;8.20;;;;;;;-1.20;100.00;99021.19;5053668;28;20060;-67
2020/12/05 00:10:20;;;;;;;17.85;7.72;;;;;;;-1.15;100.00;99026.88;5057658;28;20065;-67
2020/12/05 00:12:46;;;;;;;22.27;8.10;;;;;;;-1.14;100.00;99026.75;5050817;28;20500;-67
2020/12/05 00:15:11;;;;;;;18.60;7.93;;;;;;;-1.13;100.00;99032.84;5067614;28;20041;-67
2020/12/05 00:17:37;;;;;;;23.08;8.70;;;;;;;-1.13;100.00;99032.84;5031207;28;20069;-67
2020/12/05 00:20:03;;;;;;;21.02;8.80;;;;;;;-1.14;100.00;99029.38;5051209;28;20037;-67
2020/12/05 00:22:30;;;;;;;20.20;7.68;;;;;;;-1.14;100.00;99031.19;5064101;28;20048;-67
2020/12/05 00:24:56;;;;;;;18.13;7.70;;;;;;;-1.17;100.00;99031.44;5051465;28;20094;-67
2020/12/05 00:27:21;;;;;;;22.40;7.95;;;;;;;-1.18;100.00;99038.50;5063812;28;20036;-67
2020/12/05 00:29:47;;;;;;;20.00;9.13;;;;;;;-1.20;100.00;99047.50;5059948;28;20043;-67
2020/12/05 00:32:13;;;;;;;21.73;8.35;;;;;;;-1.20;100.00;99050.16;5064447;28;20555;-67
2020/12/05 00:34:39;;;;;;;17.70;7.97;;;;;;;-1.18;100.00;99050.84;5062195;28;20159;-67
2020/12/05 00:37:05;;;;;;;17.38;7.95;;;;;;;-1.12;100.00;99066.91;5048240;28;20067;-67
2020/12/05 00:39:30;;;;;;;18.15;7.88;;;;;;;-1.08;100.00;99059.56;5059956;28;20047;-67
2020/12/05 00:41:56;;;;;;;20.70;7.80;;;;;;;-1.09;100.00;99066.66;5070210;28;20024;-67
2020/12/05 00:44:22;;;;;;;22.50;8.43;;;;;;;-1.09;100.00;99063.19;5069838;28;20039;-67
2020/12/05 00:46:47;;;;;;;21.35;7.82;;;;;;;-1.11;100.00;99086.16;5069246;28;20031;-67
2020/12/05 00:49:13;;;;;;;14.35;6.53;;;;;;;-1.14;100.00;99089.91;5070359;28;20051;-67
2020/12/05 00:51:38;;;;;;;20.80;7.50;;;;;;;-1.16;100.00;99089.19;5053303;28;20685;-67
2020/12/05 00:54:04;;;;;;;12.40;6.70;;;;;;;-1.16;100.00;99093.63;5060065;28;20028;-67
2020/12/05 00:56:29;;;;;;;19.58;7.55;;;;;;;-1.19;100.00;99099.16;5066793;28;20116;-67
2020/12/05 00:58:55;;;;;;;15.57;5.68;;;;;;;-1.18;100.00;99112.19;5050122;28;20527;-67
2020/12/05 01:01:20;;;;;;;16.13;6.80;;;;;;;-1.17;100.00;99113.84;5048960;28;20043;-67
2020/12/05 01:03:46;;;;;;;15.82;6.57;;;;;;;-1.15;100.00;99124.25;5070374;28;20487;-67
2020/12/05 01:06:13;;;;;;;13.13;5.85;;;;;;;-1.17;100.00;99123.53;5069703;28;20099;-67
2020/12/05 01:08:40;;;;;;;17.83;6.97;;;;;;;-1.16;100.00;99130.47;5051629;28;20116;-67
2020/12/05 01:11:18;;;;;;;14.02;5.63;;;;;;;-1.14;100.00;99116.22;5056284;28;20029;-67
2020/12/05 01:13:45;;;;;;;21.67;6.43;;;;;;;-1.14;100.00;99115.38;5058718;28;20421;-67
2020/12/05 01:16:12;;;;;;;15.88;6.57;;;;;;;-1.13;100.00;99124.94;5047541;28;20032;-67
2020/12/05 01:18:39;;;;;;;17.02;6.40;;;;;;;-1.14;100.00;99123.28;5049610;28;20378;-67
2020/12/05 01:21:07;;;;;;;14.15;5.72;;;;;;;-1.17;100.00;99123.53;5068402;28;20025;-67
2020/12/05 01:23:32;;;;;;;15.57;6.15;;;;;;;-1.20;100.00;99131.72;5070197;28;20024;-67
2020/12/05 01:25:58;;;;;;;11.00;5.95;;;;;;;-1.22;100.00;99136.25;5054022;28;20039;-67
2020/12/05 01:28:23;;;;;;;15.48;6.13;;;;;;;-1.25;100.00;99137.38;5069321;28;20028;-67
2020/12/05 01:30:49;;;;;;;17.67;6.47;;;;;;;-1.28;100.00;99142.06;5062650;28;20036;-67
2020/12/05 01:33:15;;;;;;;13.00;6.72;;;;;;;-1.31;100.00;99144.00;5063272;28;20078;-67
2020/12/05 01:35:40;;;;;;;15.20;7.07;;;;;;;-1.30;100.00;99142.22;5067206;28;20423;-67
2020/12/05 01:38:06;;;;;;;11.73;6.85;;;;;;;-1.31;100.00;99146.63;5036156;28;20440;-67
2020/12/05 01:40:31;;;;;;;12.45;7.20;;;;;;;-1.31;100.00;99146.63;5067108;28;20075;-67
2020/12/05 01:42:57;;;;;;;17.25;8.18;;;;;;;-1.31;100.00;99143.16;5068950;28;20021;-67
2020/12/05 01:45:22;;;;;;;18.10;7.95;;;;;;;-1.28;100.00;99150.78;5064444;28;20074;-67
2020/12/05 01:47:48;;;;;;;19.13;8.93;;;;;;;-1.20;100.00;99148.34;5048438;28;20036;-67
2020/12/05 01:50:13;;;;;;;20.10;7.80;;;;;;;-1.22;100.00;99150.25;5062026;28;20029;-67
2020/12/05 01:52:39;;;;;;;18.00;6.78;;;;;;;-1.12;100.00;99142.38;5059990;28;20037;-67
2020/12/05 01:55:06;;;;;;;19.00;7.65;;;;;;;-1.06;100.00;99134.78;5068081;28;20029;-67
2020/12/05 01:57:32;;;;;;;15.93;6.65;;;;;;;-1.06;100.00;99136.59;5068610;28;20044;-67
2020/12/05 01:59:57;;;;;;;23.38;7.75;;;;;;;-1.09;100.00;99144.78;5068511;28;20037;-67
2020/12/05 02:02:23;;;;;;;17.60;7.10;;;;;;;-1.11;100.00;99151.94;5057418;28;20060;-67
2020/12/05 02:05:04;;;;;;;16.90;7.28;;;;;;;-1.13;100.00;99154.72;5048770;28;20028;-67
2020/12/05 02:07:43;;;;;;;19.55;7.07;;;;;;;-1.17;100.00;99163.00;5060903;28;20051;-67
2020/12/05 02:10:09;;;;;;;18.67;8.02;;;;;;;-1.24;100.00;99161.88;5068612;28;20033;-67
2020/12/05 02:12:53;;;;;;;23.05;7.38;;;;;;;-1.31;100.00;99159.78;5065532;28;20446;-67
2020/12/05 02:15:31;;;;;;;13.75;6.82;;;;;;;-1.35;100.00;99166.28;5045547;28;20060;-67
2020/12/05 02:18:06;;;;;;;16.90;6.97;;;;;;;-1.35;100.00;99163.66;5042836;28;20119;-67
2020/12/05 02:20:44;;;;;;;14.57;6.50;;;;;;;-1.34;100.00;99159.22;5054624;28;20048;-67
2020/12/05 02:23:29;;;;;;;19.63;6.80;;;;;;;-1.28;100.00;99155.22;5068243;28;20739;-67
2020/12/05 02:26:15;;;;;;;15.10;6.95;;;;;;;-1.33;100.00;99164.34;5028599;28;20119;-67
2020/12/05 02:28:40;;;;;;;20.10;6.93;;;;;;;-1.33;100.00;99172.22;5068026;28;20028;-67
2020/12/05 02:31:26;;;;;;;14.98;7.07;;;;;;;-1.32;100.00;99175.69;5038055;28;20504;-67
2020/12/05 02:33:52;;;;;;;14.68;6.80;;;;;;;-1.31;100.00;99177.34;5057378;28;20039;-67
2020/12/05 02:36:18;;;;;;;12.23;6.25;;;;;;;-1.35;100.00;99171.53;5056902;28;20124;-67
2020/12/05 02:38:55;;;;;;;14.05;7.00;;;;;;;-1.39;100.00;99170.13;5050339;28;20174;-67
2020/12/05 02:41:23;;;;;;;19.63;6.85;;;;;;;-1.42;100.00;99173.00;5056225;28;20044;-67
2020/12/05 02:43:50;;;;;;;19.77;6.72;;;;;;;-1.44;100.00;99167.06;5061375;28;20025;-67
2020/12/05 02:46:16;;;;;;;18.20;6.80;;;;;;;-1.41;100.00;99174.66;5042214;28;20036;-67
2020/12/05 02:48:41;;;;;;;20.67;8.25;;;;;;;-1.33;100.00;99174.03;5053990;28;20020;-67
2020/12/05 02:51:07;;;;;;;14.63;7.07;;;;;;;-1.30;100.00;99163.25;5066154;28;20078;-67
2020/12/05 02:53:33;;;;;;;16.55;7.32;;;;;;;-1.28;100.00;99166.56;5063856;28;20051;-67
2020/12/05 02:55:59;;;;;;;13.27;7.65;;;;;;;-1.25;100.00;99168.13;5048969;28;20028;-67
2020/12/05 02:58:25;;;;;;;22.65;7.60;;;;;;;-1.18;100.00;99162.19;5047692;28;20060;-68
2020/12/05 03:00:51;;;;;;;19.92;8.25;;;;;;;-1.14;100.00;99168.03;5059658;28;20107;-67
2020/12/05 03:03:17;;;;;;;13.65;7.93;;;;;;;-1.09;100.00;99165.81;5067066;28;20411;-67
2020/12/05 03:05:43;;;;;;;14.98;7.40;;;;;;;-1.08;100.00;99165.69;5066857;28;20119;-67
2020/12/05 03:08:08;;;;;;;19.73;7.40;;;;;;;-1.05;100.00;99164.59;5066119;28;20036;-67
2020/12/05 03:10:34;;;;;;;18.77;8.85;;;;;;;-1.09;100.00;99171.09;5067670;28;20028;-67
2020/12/05 03:13:00;;;;;;;18.45;8.13;;;;;;;-1.14;100.00;99181.19;5066959;28;20501;-67
2020/12/05 03:15:26;;;;;;;18.83;7.43;;;;;;;-1.19;100.00;99178.94;5050460;28;20087;-67
2020/12/05 03:17:51;;;;;;;24.05;7.22;;;;;;;-1.21;100.00;99177.41;5049081;28;20032;-68
2020/12/05 03:20:17;;;;;;;20.77;8.43;;;;;;;-1.23;100.00;99180.16;5067517;28;20090;-67
2020/12/05 03:22:43;;;;;;;17.65;7.55;;;;;;;-1.22;100.00;99181.00;5053557;28;20399;-67
2020/12/05 03:25:09;;;;;;;19.10;8.07;;;;;;;-1.23;100.00;99184.59;5056575;28;20029;-67
2020/12/05 03:27:34;;;;;;;16.63;7.15;;;;;;;-1.23;100.00;99187.22;5046126;28;20435;-67
2020/12/05 03:30:00;;;;;;;17.73;7.93;;;;;;;-1.26;100.00;99190.94;5055450;28;20033;-67
2020/12/05 03:32:30;;;;;;;17.67;7.18;;;;;;;-1.33;100.00;99185.38;5061705;28;20041;-67
2020/12/05 03:34:56;;;;;;;15.15;7.60;;;;;;;-1.34;100.00;99188.16;5048983;28;20039;-67
2020/12/05 03:37:24;;;;;;;15.00;8.18;;;;;;;-1.33;100.00;99195.06;5045059;28;20123;-67
2020/12/05 03:39:51;;;;;;;16.20;8.30;;;;;;;-1.29;100.00;99190.38;5044867;28;20028;-67
2020/12/05 03:42:17;;;;;;;19.23;7.47;;;;;;;-1.31;100.00;99199.25;5062871;28;20373;-67
2020/12/05 03:44:42;;;;;;;16.77;7.60;;;;;;;-1.28;100.00;99203.41;5067070;28;20043;-67
2020/12/05 03:47:08;;;;;;;19.63;7.82;;;;;;;-1.23;100.00;99208.28;5066246;28;20044;-67
2020/12/05 03:49:34;;;;;;;21.75;8.80;;;;;;;-1.13;100.00;99202.09;5057222;28;20117;-67
2020/12/05 03:52:00;;;;;;;20.42;8.60;;;;;;;-1.00;100.00;99201.88;5073200;28;20029;-67
2020/12/05 03:54:26;;;;;;;16.48;8.05;;;;;;;-0.98;100.00;99210.47;5070818;28;20663;-67
2020/12/05 03:56:52;;;;;;;17.55;8.13;;;;;;;-0.94;100.00;99214.50;5051896;28;20104;-67
2020/12/05 03:59:17;;;;;;;17.08;7.88;;;;;;;-0.85;100.00;99205.00;5070736;28;20032;-67
2020/12/05 04:01:43;;;;;;;17.40;7.75;;;;;;;-0.81;100.00;99209.00;5070303;28;20024;-67
2020/12/05 04:04:09;;;;;;;16.08;8.10;;;;;;;-0.73;100.00;99210.97;5070159;28;20033;-67
2020/12/05 04:06:34;;;;;;;20.48;8.50;;;;;;;-0.67;100.00;99206.00;5069058;28;20081;-67
2020/12/05 04:09:00;;;;;;;19.80;8.25;;;;;;;-0.64;100.00;99211.00;5070785;28;20036;-67
2020/12/05 04:11:26;;;;;;;14.80;7.57;;;;;;;-0.63;100.00;99203.94;5052576;28;20032;-67
2020/12/05 04:13:51;;;;;;;16.15;8.18;;;;;;;-0.62;100.00;99205.59;5070566;28;20512;-67
2020/12/05 04:16:17;;;;;;;18.23;10.10;;;;;;;-0.66;100.00;99205.00;5053526;28;20070;-67
2020/12/05 04:18:42;;;;;;;15.13;7.97;;;;;;;-0.69;100.00;99200.03;5069943;28;20032;-67
2020/12/05 04:21:08;;;;;;;17.48;7.95;;;;;;;-0.69;100.00;99199.22;5070100;28;20045;-67
2020/12/05 04:23:33;;;;;;;19.35;7.85;;;;;;;-0.72;100.00;99210.81;5070440;28;20029;-67
2020/12/05 04:25:59;;;;;;;16.27;7.47;;;;;;;-0.74;100.00;99220.66;5070260;28;20056;-67
2020/12/05 04:28:24;;;;;;;16.45;7.75;;;;;;;-0.74;100.00;99222.47;5069564;28;20043;-67
2020/12/05 04:30:50;;;;;;;17.63;7.20;;;;;;;-0.69;100.00;99229.00;5058850;28;20024;-67
2020/12/05 04:33:16;;;;;;;14.85;7.40;;;;;;;-0.58;100.00;99234.16;5054429;28;20033;-67
2020/12/05 04:35:41;;;;;;;19.63;8.73;;;;;;;-0.49;100.00;99236.97;5067927;28;20089;-67
2020/12/05 04:38:07;;;;;;;17.75;8.23;;;;;;;-0.42;100.00;99244.19;5057336;28;20083;-67
2020/12/05 04:40:33;;;;;;;14.82;7.40;;;;;;;-0.39;100.00;99236.00;5055058;28;20035;-67
2020/12/05 04:43:00;;;;;;;17.58;8.68;;;;;;;-0.35;100.00;99237.41;5052177;28;20024;-67
2020/12/05 04:45:27;;;;;;;13.63;7.25;;;;;;;-0.34;100.00;99240.88;5056623;28;20036;-67
2020/12/05 04:47:54;;;;;;;19.85;7.60;;;;;;;-0.33;100.00;99243.38;5068478;28;20700;-67
2020/12/05 04:50:24;;;;;;;19.33;7.75;;;;;;;-0.32;100.00;99247.66;5069755;28;20032;-67
2020/12/05 04:52:52;;;;;;;16.15;6.82;;;;;;;-0.33;100.00;99247.81;5069492;28;20032;-67
2020/12/05 04:55:23;;;;;;;14.43;7.25;;;;;;;-0.29;100.00;99251.84;5069805;28;20044;-67
2020/12/05 04:57:56;;;;;;;15.77;7.63;;;;;;;-0.28;100.00;99256.97;5050854;28;20504;-67
2020/12/05 05:00:21;;;;;;;14.18;7.10;;;;;;;-0.26;100.00;99256.81;5069480;28;20553;-67
2020/12/05 05:02:47;;;;;;;13.93;7.00;;;;;;;-0.26;100.00;99255.03;5055528;28;20037;-68
2020/12/05 05:05:14;;;;;;;15.70;6.93;;;;;;;-0.24;100.00;99267.25;5069330;28;20033;-67
2020/12/05 05:07:48;;;;;;;19.05;8.35;;;;;;;-0.19;100.00;99270.31;5068667;28;20029;-67
2020/12/05 05:10:18;;;;;;;16.33;7.53;;;;;;;-0.17;100.00;99265.72;5069688;28;20029;-67
2020/12/05 05:12:44;;;;;;;13.70;6.85;;;;;;;-0.14;100.00;99268.09;5069143;28;20036;-67
2020/12/05 05:15:29;;;;;;;13.30;7.40;;;;;;;-0.11;100.00;99275.72;5041514;28;20036;-67
2020/12/05 05:18:00;;;;;;;15.80;6.90;;;;;;;-0.09;100.00;99279.06;5066420;28;20111;-67
2020/12/05 05:20:26;;;;;;;16.73;7.47;;;;;;;-0.04;100.00;99279.50;5068941;28;20040;-67
2020/12/05 05:23:12;;;;;;;15.30;7.32;;;;;;;-0.03;100.00;99291.69;5069038;28;20028;-67
2020/12/05 05:25:55;;;;;;;12.63;6.53;;;;;;;0.01;100.00;99289.63;5069028;28;20043;-67
2020/12/05 05:28:26;;;;;;;13.57;6.55;;;;;;;0.03;100.00;99295.59;5068183;28;20504;-67
2020/12/05 05:31:24;;;;;;;13.98;6.80;;;;;;;0.07;100.00;99299.63;5063680;28;20116;-67
2020/12/05 05:33:52;;;;;;;14.93;7.07;;;;;;;0.14;100.00;99304.19;5059611;28;20032;-68
2020/12/05 05:36:29;;;;;;;13.30;6.88;;;;;;;0.22;100.00;99309.63;5068702;28;20032;-68
2020/12/05 05:38:59;;;;;;;13.85;6.80;;;;;;;0.31;100.00;99309.78;5052093;28;20063;-67
2020/12/05 05:41:26;;;;;;;14.90;6.45;;;;;;;0.38;100.00;99313.53;5056375;28;20021;-67
2020/12/05 05:43:54;;;;;;;13.68;6.00;;;;;;;0.44;100.00;99321.72;5067464;28;20107;-67
2020/12/05 05:46:29;;;;;;;13.30;5.95;;;;;;;0.49;100.00;99324.75;5067814;28;20033;-68
2020/12/05 05:48:55;;;;;;;15.10;6.72;;;;;;;0.56;100.00;99325.06;5042519;28;20089;-67
2020/12/05 05:51:47;;;;;;;14.55;6.45;;;;;;;0.61;100.00;99332.56;5068527;28;20037;-68
2020/12/05 05:54:21;;;;;;;14.60;5.80;;;;;;;0.61;100.00;99327.28;5068254;28;20028;-67
2020/12/05 05:56:53;;;;;;;12.85;6.45;;;;;;;0.63;100.00;99336.72;5062272;28;20064;-68
2020/12/05 05:59:21;;;;;;;10.25;6.15;;;;;;;0.64;100.00;99337.53;5060815;28;20078;-68
2020/12/05 06:01:50;;;;;;;11.48;6.60;;;;;;;0.63;100.00;99341.16;5068283;28;20025;-67
2020/12/05 06:04:22;;;;;;;12.48;6.10;;;;;;;0.57;100.00;99341.72;5067926;28;20504;-70
2020/12/05 06:06:50;;;;;;;12.50;6.47;;;;;;;0.46;100.00;99348.81;5061529;28;20064;-70
2020/12/05 06:09:21;;;;;;;16.50;6.13;;;;;;;0.38;100.00;99351.28;5060894;28;20067;-68
2020/12/05 06:11:50;;;;;;;14.57;6.45;;;;;;;0.30;100.00;99347.66;5056176;28;20427;-68
2020/12/05 06:14:21;;;;;;;16.20;6.50;;;;;;;0.18;100.00;99355.69;5067740;28;20028;-68
2020/12/05 06:16:49;;;;;;;13.10;6.25;;;;;;;0.08;100.00;99346.13;5052308;28;20032;-68
2020/12/05 06:19:14;;;;;;;12.90;6.32;;;;;;;0.01;100.00;99347.63;5067699;28;20558;-68
2020/12/05 06:21:41;;;;;;;13.70;6.40;;;;;;;-0.05;100.00;99360.38;5067467;28;20025;-68
2020/12/05 06:24:08;;;;;;;13.10;6.20;;;;;;;-0.12;100.00;99353.16;5068134;28;20072;-68
2020/12/05 06:26:38;;;;;;;13.05;6.28;;;;;;;-0.23;100.00;99358.53;5068203;28;20040;-68
2020/12/05 06:29:06;;;;;;;12.23;6.85;;;;;;;-0.32;100.00;99360.97;5068194;28;20115;-68
2020/12/05 06:31:43;;;;;;;14.68;6.10;;;;;;;-0.39;100.00;99372.19;5061052;28;20033;-68
2020/12/05 06:34:10;;;;;;;17.10;6.68;;;;;;;-0.47;100.00;99367.56;5011061;28;20041;-68
2020/12/05 06:36:37;;;;;;;16.42;7.38;;;;;;;-0.50;100.00;99382.81;5039773;28;20739;-68
2020/12/05 06:39:06;;;;;;;15.05;6.70;;;;;;;-0.55;100.00;99388.50;5054158;28;20049;-68
2020/12/05 06:41:34;;;;;;;14.40;6.70;;;;;;;-0.68;100.00;99401.84;5067823;28;20076;-68
2020/12/05 06:44:09;;;;;;;19.67;7.70;;;;;;;-0.79;100.00;99400.13;5035280;28;20240;-67
2020/12/05 06:46:45;;;;;;;14.52;7.50;;;;;;;-0.87;100.00;99405.19;5061581;28;20028;-67
2020/12/05 06:49:10;;;;;;;19.98;7.30;;;;;;;-0.92;100.00;99406.56;5056813;28;20120;-67
2020/12/05 06:51:36;;;;;;;14.60;7.22;;;;;;;-0.97;100.00;99411.38;5063206;28;20508;-67
2020/12/05 06:54:01;;;;;;;16.88;7.15;;;;;;;-1.02;100.00;99410.91;5067740;28;20039;-67
2020/12/05 06:56:27;;;;;;;14.65;6.68;;;;;;;-1.02;100.00;99413.53;5053722;28;20629;-67
2020/12/05 06:58:56;;;;;;;19.15;7.78;;;;;;;-1.08;100.00;99423.63;5050022;28;20035;-68
2020/12/05 07:01:27;;;;;;;14.73;7.78;;;;;;;-1.14;100.00;99420.66;5063199;28;20123;-67
2020/12/05 07:03:52;;;;;;;16.98;7.68;;;;;;;-1.21;100.00;99428.22;5040571;28;20048;-69
2020/12/05 07:06:25;;;;;;;20.40;8.73;;;;;;;-1.25;100.00;99431.25;5066889;28;20068;-67
2020/12/05 07:08:52;;;;;;;15.23;7.28;;;;;;;-1.36;100.00;99435.56;5067605;28;20028;-67
2020/12/05 07:11:18;;;;;;;13.90;6.65;;;;;;;-1.45;100.00;99440.75;5054748;28;20048;-67
2020/12/05 07:13:45;;;;;;;19.48;7.95;;;;;;;-1.53;100.00;99435.28;5030029;28;20048;-67
2020/12/05 07:16:21;;;;;;;18.15;7.20;;;;;;;-1.51;100.00;99434.16;5047577;28;20033;-67
2020/12/05 07:18:52;;;;;;;26.25;12.45;;;;;;;-1.29;100.00;99441.19;5046672;28;20033;-67
2020/12/05 07:21:18;;;;;;;27.77;12.65;;;;;;;-1.28;100.00;99453.38;5032322;28;20405;-67
2020/12/05 07:23:45;;;;;;;23.40;10.32;;;;;;;-1.28;100.00;99442.84;5061288;28;20098;-67
2020/12/05 07:26:11;;;;;;;22.00;11.20;;;;;;;-1.30;100.00;99444.78;5069778;28;20032;-67
2020/12/05 07:28:37;;;;;;;26.08;11.07;;;;;;;-1.35;100.00;99445.16;5056402;28;20120;-67
2020/12/05 07:31:06;;;;;;;24.70;10.85;;;;;;;-1.42;100.00;99443.97;5053336;22;20061;-88
2020/12/05 07:33:35;;;;;;;26.65;10.45;;;;;;;-1.46;100.00;99455.69;4994541;28;20117;-90
2020/12/05 07:36:04;;;;;;;19.48;8.20;;;;;;;-1.50;100.00;99459.53;4978984;28;20033;-88
2020/12/05 07:38:32;;;;;;;25.20;10.20;;;;;;;-1.52;100.00;99474.59;4958348;28;20029;-89
2020/12/05 07:40:59;;;;;;;27.95;10.75;;;;;;;-1.53;100.00;99478.19;4975551;28;20038;-89
2020/12/05 07:43:25;;;;;;;25.95;10.65;;;;;;;-1.56;100.00;99475.78;4964265;28;20036;-89
2020/12/05 07:46:22;;;;;;;22.35;9.45;;;;;;;-1.60;100.00;99480.47;4980463;28;20045;-89
2020/12/05 07:48:48;;;;;;;19.73;9.90;;;;;;;-1.61;100.00;99491.97;4984740;28;20049;-88
2020/12/05 07:51:18;;;;;;;22.10;9.43;;;;;;;-1.60;100.00;99503.31;4964725;28;20038;-89
2020/12/05 07:53:49;;;;;;;24.95;9.77;;;;;;;-1.61;100.00;99512.13;4961174;28;20557;-88
2020/12/05 07:56:44;;;;;;;30.33;10.23;;;;;;;-1.61;100.00;99528.78;4962415;28;20030;-89
2020/12/05 07:59:38;;;;;;;21.70;9.30;;;;;;;-1.57;100.00;99538.06;4955551;28;20477;-88
2020/12/05 08:02:14;;;;;;;22.05;10.23;;;;;;;-1.48;100.00;99548.84;4968614;28;20034;-89
2020/12/05 08:04:55;;;;;;;20.80;9.35;;;;;;;-1.50;100.00;99550.78;4963426;28;20061;-89
2020/12/05 08:07:35;;;;;;;20.00;9.93;;;;;;;-1.53;100.00;99548.38;4958814;28;20066;-88
2020/12/05 08:13:24;;;;;;;28.58;10.50;;;;;;;-1.42;100.00;99558.88;4981066;28;20062;-89
2020/12/05 08:16:02;;;;;;;24.17;10.32;;;;;;;-1.37;100.00;99562.81;4971993;28;20039;-89
2020/12/05 08:19:06;;;;;;;24.52;10.07;;;;;;;-1.27;100.00;99560.28;4952528;28;20044;-89
2020/12/05 08:21:40;;;;;;;24.50;12.13;;;;;;;-1.27;100.00;99569.97;4973384;28;20092;-89
2020/12/05 08:24:10;;;;;;;20.35;9.40;;;;;;;-1.32;100.00;99552.75;4957207;28;20033;-89
2020/12/05 08:26:44;;;;;;;25.15;10.93;;;;;;;-1.37;100.00;99565.44;4975948;28;20584;-90
2020/12/05 08:29:10;;;;;;;30.50;11.13;;;;;;;-1.40;100.00;99573.59;4973583;28;20462;-90
2020/12/05 08:31:42;;;;;;;25.98;11.55;;;;;;;-1.31;100.00;99577.28;4981735;28;20510;-89
2020/12/05 08:34:27;;;;;;;30.75;13.85;;;;;;;-1.28;100.00;99577.03;4957256;28;20050;-90
2020/12/05 08:36:59;;;;;;;26.95;11.35;;;;;;;-1.27;100.00;99573.44;4956620;28;20042;-90
2020/12/05 08:39:30;;;;;;;20.33;9.77;;;;;;;-1.27;100.00;99573.44;4943948;28;20034;-90
2020/12/05 08:41:55;;;;;;;27.38;11.35;;;;;;;-1.27;100.00;99583.97;4999158;28;20046;-90
2020/12/05 08:44:22;;;;;;;25.50;11.23;;;;;;;-1.21;100.00;99593.16;4976896;28;20030;-89
2020/12/05 08:47:04;;;;;;;23.60;11.00;;;;;;;-1.27;100.00;99580.50;4980029;28;20035;-90
2020/12/05 08:49:39;;;;;;;23.50;10.10;;;;;;;-1.18;100.00;99600.84;4976293;28;20038;-91
2020/12/05 08:52:07;;;;;;;49.25;13.50;;;;;;;-1.03;100.00;99598.78;4941306;28;20047;-91
2020/12/05 08:55:00;;;;;;;;;;;;;;;;;;;;;
2020/12/05 08:57:35;;;;;;;20.60;11.40;;;;;;;-0.92;100.00;99602.22;4977060;28;20050;-90
2020/12/05 09:00:11;;;;;;;29.40;11.88;;;;;;;-0.68;100.00;99611.72;4960934;28;20037;-91
2020/12/05 09:02:39;;;;;;;24.13;11.20;;;;;;;-0.48;100.00;99610.09;4947740;28;20038;-87
2020/12/05 09:05:05;;;;;;;25.13;12.05;;;;;;;-0.31;100.00;99599.81;4972491;28;20390;-88
2020/12/05 09:07:30;;;;;;;22.45;11.00;;;;;;;-0.08;100.00;99608.47;4966285;28;20450;-86
2020/12/05 09:09:56;;;;;;;20.02;9.57;;;;;;;0.14;100.00;99598.75;4973852;28;20513;-89
2020/12/05 09:12:22;;;;;;;22.60;9.73;;;;;;;0.35;100.00;99596.06;4976083;28;20030;-89
2020/12/05 09:15:10;;;;;;;14.40;6.97;;;;;;;0.61;100.00;99599.97;4946400;28;20465;-89
2020/12/05 09:17:36;;;;;;;12.48;6.70;;;;;;;0.75;100.00;99610.16;4979173;28;20398;-89
2020/12/05 09:20:20;;;;;;;15.35;6.25;;;;;;;0.95;100.00;99616.31;4976483;28;20034;-90
2020/12/05 09:22:47;;;;;;;11.13;5.43;;;;;;;1.17;100.00;99635.56;4962456;28;20033;-91
2020/12/05 09:25:35;;;;;;;12.05;4.97;;;;;;;1.34;100.00;99631.41;4941809;28;20030;-91
2020/12/05 09:28:07;;;;;;;10.45;5.03;;;;;;;1.58;100.00;99645.09;4962048;28;20529;-90
2020/12/05 09:30:32;;;;;;;6.75;3.47;;;;;;;1.70;100.00;99635.19;4959986;28;20509;-90
2020/12/05 09:33:08;;;;;;;5.55;3.42;;;;;;;2.00;100.00;99642.16;4944364;28;20031;-90
2020/12/05 09:35:34;;;;;;;7.57;3.90;;;;;;;2.07;100.00;99627.41;4962091;28;20070;-90
2020/12/05 09:38:28;;;;;;;6.43;3.28;;;;;;;2.22;100.00;99611.91;4940961;28;20078;-91
2020/12/05 09:40:57;;;;;;;5.00;3.05;;;;;;;2.39;100.00;99626.22;4966886;28;20391;-91
2020/12/05 09:43:32;;;;;;;7.35;3.15;;;;;;;2.48;100.00;99642.06;4973007;28;20031;-91
2020/12/05 09:46:13;;;;;;;7.03;3.13;;;;;;;2.50;100.00;99640.09;4941033;28;20038;-91
2020/12/05 09:48:53;;;;;;;5.75;3.00;;;;;;;2.58;100.00;99650.81;4943857;28;20104;-91
2020/12/05 09:51:21;;;;;;;4.88;3.30;;;;;;;2.71;100.00;99647.00;4966092;28;20398;-92
2020/12/05 09:53:57;;;;;;;8.48;3.13;;;;;;;2.75;100.00;99651.84;4944849;28;20041;-90
2020/12/05 09:56:22;;;;;;;9.20;3.22;;;;;;;2.86;100.00;99650.84;4949018;28;20517;-90
2020/12/05 09:58:48;;;;;;;9.70;3.13;;;;;;;2.90;100.00;99643.44;4940646;28;20034;-90
2020/12/05 10:01:16;;;;;;;8.65;3.72;;;;;;;2.97;100.00;99637.44;4984823;28;20037;-91
2020/12/05 10:03:41;;;;;;;5.63;3.20;;;;;;;3.08;100.00;99631.91;4992973;28;20041;-91
2020/12/05 10:06:07;;;;;;;7.18;2.90;;;;;;;3.11;100.00;99636.94;4972042;28;20038;-92
2020/12/05 10:08:33;;;;;;;5.00;2.90;;;;;;;3.14;100.00;99645.56;4961401;28;20528;-91
2020/12/05 10:11:06;;;;;;;10.27;2.92;;;;;;;3.16;100.00;99644.41;4932914;28;20038;-91
2020/12/05 10:13:32;;;;;;;6.63;2.20;;;;;;;3.26;99.85;99637.28;4963121;28;20042;-92
2020/12/05 10:15:57;;;;;;;5.65;2.45;;;;;;;3.33;99.24;99637.50;4976588;28;20054;-90
2020/12/05 10:19:08;;;;;;;7.43;2.75;;;;;;;3.32;100.00;99641.97;4942620;28;20035;-91
2020/12/05 10:22:12;;;;;;;5.32;2.25;;;;;;;3.42;99.16;99652.53;4956754;28;20038;-90
2020/12/05 10:24:38;;;;;;;7.32;2.65;;;;;;;3.49;98.27;99660.69;4959991;23;20077;-69
2020/12/05 10:27:04;;;;;;;7.85;2.60;;;;;;;3.50;97.19;99657.88;4978649;28;20469;-69
2020/12/05 10:29:29;;;;;;;8.27;2.38;;;;;;;3.57;97.09;99668.75;4970379;28;20042;-69
2020/12/05 10:31:55;;;;;;;9.45;2.80;;;;;;;3.62;97.26;99661.19;4968404;28;20138;-68
2020/12/05 10:34:21;;;;;;;7.43;2.70;;;;;;;3.78;95.33;99663.97;4965088;28;20184;-69
2020/12/05 10:36:48;;;;;;;6.97;2.55;;;;;;;3.77;94.74;99667.63;4968263;28;20492;-69
2020/12/05 10:39:13;;;;;;;6.10;2.30;;;;;;;3.82;95.07;99667.19;4968433;28;20062;-69
2020/12/05 10:41:41;;;;;;;9.10;2.95;;;;;;;3.84;95.32;99660.72;4968115;28;20077;-69
2020/12/05 10:44:08;;;;;;;6.72;2.47;;;;;;;3.92;94.89;99667.94;4966966;28;20426;-69
2020/12/05 10:46:41;;;;;;;8.10;2.78;;;;;;;3.98;95.68;99663.81;4967953;28;20031;-69
2020/12/05 10:49:06;;;;;;;8.10;2.08;;;;;;;3.97;93.96;99663.00;4967749;28;20069;-72
2020/12/05 10:51:32;;;;;;;10.05;2.53;;;;;;;3.92;93.93;99662.63;4967876;28;20507;-69
2020/12/05 10:53:58;;;;;;;6.20;2.35;;;;;;;4.00;95.13;99669.81;4968232;28;20037;-69
2020/12/05 10:56:24;;;;;;;5.88;3.00;;;;;;;4.08;95.19;99673.38;4967995;28;20081;-68
2020/12/05 10:58:50;;;;;;;5.57;2.90;;;;;;;4.17;95.07;99676.94;4967853;28;20030;-69
2020/12/05 11:01:16;;;;;;;5.45;2.70;;;;;;;4.27;92.64;99675.03;4983037;28;20105;-69
2020/12/05 11:03:41;;;;;;;5.00;2.50;;;;;;;4.29;92.75;99675.69;4968191;28;20018;-69
2020/12/05 11:06:07;;;;;;;5.45;2.50;;;;;;;4.28;91.96;99679.34;4968365;28;20463;-69
2020/12/05 11:08:32;;;;;;;7.53;3.05;;;;;;;4.30;93.00;99680.00;4967680;28;20081;-69
2020/12/05 11:10:58;;;;;;;7.18;2.80;;;;;;;4.35;94.19;99682.19;4982738;28;20463;-68
2020/12/05 11:13:23;;;;;;;5.90;2.78;;;;;;;4.40;94.37;99680.75;4966173;28;20039;-69
2020/12/05 11:15:49;;;;;;;7.55;2.65;;;;;;;4.49;92.64;99679.00;4967556;28;20031;-69
2020/12/05 11:18:14;;;;;;;8.98;4.75;;;;;;;4.47;93.82;99682.78;4967775;28;20054;-69
2020/12/05 11:20:40;;;;;;;4.00;2.63;;;;;;;4.50;92.29;99679.81;4969246;28;20070;-69
2020/12/05 11:23:06;;;;;;;6.28;3.13;;;;;;;4.53;93.33;99688.31;4967163;28;20399;-69
2020/12/05 11:25:31;;;;;;;4.70;2.30;;;;;;;4.53;91.97;99685.66;4950901;28;20043;-69
2020/12/05 11:27:57;;;;;;;4.63;1.95;;;;;;;4.50;88.44;99685.13;4967207;28;20046;-69
2020/12/05 11:30:23;;;;;;;4.30;1.88;;;;;;;4.51;89.31;99684.97;4968060;28;20082;-69
2020/12/05 11:32:48;;;;;;;5.13;2.10;;;;;;;4.48;88.58;99697.75;4963504;28;20233;-69
2020/12/05 11:35:14;;;;;;;5.50;2.17;;;;;;;4.41;89.47;99694.84;4968127;28;20117;-69